Alegria — LE9325 — position and weather

sailwx.info

Track history (hours):
 
Tides and Currents Weather Stations Pressure Air Temp Water Temp Dewpoint Dewpoint Depression Visibility Wind Speed Wind Dir Waves Ship Positions

Alegria

Last reported at 2017-Oct-02 14:59 UTC. Time now 2017-Oct-19 23:59 UTC.
Position N 59°43' E 010°43'.
Warning: this ship's position is 17 days out of date.

Length 11 m.

Type: Pleasure craft. MMSI: 258532510.

Date/timePositionNaut miles runAvg speedWind from/ knotsBaromVisibWave heightAir tempDewpointWater temp
2017-Oct-02 14:59N 59°43' E 010°43'2 3.8
2017-Oct-02 14:29N 59°45' E 010°43'3 6.1
2017-Oct-02 13:59N 59°48' E 010°43'3 6.1
2017-Oct-02 13:30N 59°51' E 010°42'2 4.0
2017-Oct-02 13:00N 59°52' E 010°38'3 5.6
2017-Oct-02 12:30N 59°50' E 010°33'3 5.3
2017-Oct-02 11:59N 59°47' E 010°33'3 5.8
2017-Oct-02 11:30N 59°44' E 010°35'4 7.6
2017-Oct-02 10:59N 59°40' E 010°37'1 0.0
2017-Oct-01 13:35N 59°40' E 010°38'0 0.4
2017-Oct-01 13:30N 59°40' E 010°38'3 5.8
2017-Oct-01 12:56N 59°36' E 010°37'3 6.4
2017-Oct-01 12:29N 59°33' E 010°37'3 5.4
2017-Oct-01 11:59N 59°32' E 010°32'2 4.5
2017-Oct-01 11:30N 59°31' E 010°29'2 3.6
2017-Oct-01 11:00N 59°31' E 010°25'2 4.8
2017-Oct-01 10:30N 59°30' E 010°21'1 0.0
2017-Sep-29 14:20N 59°29' E 010°19'0 1.4
2017-Sep-29 14:00N 59°29' E 010°20'3 5.3
2017-Sep-29 13:31N 59°28' E 010°25'3 5.3
2017-Sep-29 13:00N 59°27' E 010°29'3 6.0
2017-Sep-29 12:30N 59°25' E 010°33'3 6.5
2017-Sep-29 12:00N 59°22' E 010°37'2 4.9
2017-Sep-29 11:30N 59°20' E 010°39'2 4.7
2017-Sep-29 10:59N 59°18' E 010°41'1 0.0
2017-Sep-28 14:26N 59°19' E 010°42'2 3.9
2017-Sep-28 13:59N 59°17' E 010°42'3 6.3
2017-Sep-28 13:29N 59°14' E 010°43'3 6.5
2017-Sep-28 13:00N 59°11' E 010°45'3 6.4
2017-Sep-28 12:30N 59°09' E 010°50'3 6.8
2017-Sep-28 12:00N 59°08' E 010°56'4 7.7
2017-Sep-28 11:30N 59°12' E 010°57'0 0.1
2017-Sep-28 11:00N 59°12' E 010°57'  
Track history (hours):
 
Tides and Currents Weather Stations Pressure Air Temp Water Temp Dewpoint Dewpoint Depression Visibility Wind Speed Wind Dir Waves Ship Positions

Alegria

Last reported at 2017-Oct-02 14:59 UTC. Time now 2017-Oct-19 23:59 UTC.
Position N 59°43' E 010°43'.
Warning: this ship's position is 17 days out of date.

Length 11 m.

Type: Pleasure craft. MMSI: 258532510.

Date/timePositionNaut miles runAvg speedWind from/ knotsBaromVisibWave heightAir tempDewpointWater temp
2017-Oct-02 14:59N 59°43' E 010°43'2 3.8
2017-Oct-02 14:29N 59°45' E 010°43'3 6.1
2017-Oct-02 13:59N 59°48' E 010°43'3 6.1
2017-Oct-02 13:30N 59°51' E 010°42'2 4.0
2017-Oct-02 13:00N 59°52' E 010°38'3 5.6
2017-Oct-02 12:30N 59°50' E 010°33'3 5.3
2017-Oct-02 11:59N 59°47' E 010°33'3 5.8
2017-Oct-02 11:30N 59°44' E 010°35'4 7.6
2017-Oct-02 10:59N 59°40' E 010°37'1 0.0
2017-Oct-01 13:35N 59°40' E 010°38'0 0.4
2017-Oct-01 13:30N 59°40' E 010°38'3 5.8
2017-Oct-01 12:56N 59°36' E 010°37'3 6.4
2017-Oct-01 12:29N 59°33' E 010°37'3 5.4
2017-Oct-01 11:59N 59°32' E 010°32'2 4.5
2017-Oct-01 11:30N 59°31' E 010°29'2 3.6
2017-Oct-01 11:00N 59°31' E 010°25'2 4.8
2017-Oct-01 10:30N 59°30' E 010°21'1 0.0
2017-Sep-29 14:20N 59°29' E 010°19'0 1.4
2017-Sep-29 14:00N 59°29' E 010°20'3 5.3
2017-Sep-29 13:31N 59°28' E 010°25'3 5.3
2017-Sep-29 13:00N 59°27' E 010°29'3 6.0
2017-Sep-29 12:30N 59°25' E 010°33'3 6.5
2017-Sep-29 12:00N 59°22' E 010°37'2 4.9
2017-Sep-29 11:30N 59°20' E 010°39'2 4.7
2017-Sep-29 10:59N 59°18' E 010°41'1 0.0
2017-Sep-28 14:26N 59°19' E 010°42'2 3.9
2017-Sep-28 13:59N 59°17' E 010°42'3 6.3
2017-Sep-28 13:29N 59°14' E 010°43'3 6.5
2017-Sep-28 13:00N 59°11' E 010°45'3 6.4
2017-Sep-28 12:30N 59°09' E 010°50'3 6.8
2017-Sep-28 12:00N 59°08' E 010°56'4 7.7
2017-Sep-28 11:30N 59°12' E 010°57'0 0.1
2017-Sep-28 11:00N 59°12' E 010°57'  

Dump ship's entire track history